createdAt,value
2019-05-26T00:00:49.303Z,7.05
2019-05-26T00:03:15.411Z,7.30
2019-05-26T00:05:41.558Z,6.65
2019-05-26T00:08:07.601Z,6.97
2019-05-26T00:10:33.727Z,6.17
2019-05-26T00:12:59.626Z,6.53
2019-05-26T00:15:25.765Z,6.60
2019-05-26T00:17:51.803Z,6.12
2019-05-26T00:20:17.904Z,6.37
2019-05-26T00:22:44.046Z,5.65
2019-05-26T00:25:10.879Z,6.05
2019-05-26T00:27:36.886Z,7.83
2019-05-26T00:30:08.011Z,6.20
2019-05-26T00:32:34.011Z,5.45
2019-05-26T00:34:59.942Z,6.08
2019-05-26T00:37:26.058Z,6.42
2019-05-26T00:39:51.957Z,6.72
2019-05-26T00:42:18.092Z,5.40
2019-05-26T00:44:44.100Z,6.08
2019-05-26T00:47:10.231Z,7.05
2019-05-26T00:49:36.378Z,6.35
2019-05-26T00:52:02.503Z,5.83
2019-05-26T00:54:28.648Z,5.72
2019-05-26T00:56:54.686Z,6.65
2019-05-26T00:59:20.789Z,6.15
2019-05-26T01:01:46.997Z,5.87
2019-05-26T01:04:13.110Z,6.15
2019-05-26T01:06:39.212Z,6.37
2019-05-26T01:09:06.926Z,6.83
2019-05-26T01:11:33.037Z,5.72
2019-05-26T01:13:59.033Z,6.00
2019-05-26T01:16:24.983Z,6.08
2019-05-26T01:18:51.084Z,6.83
2019-05-26T01:21:17.240Z,6.22
2019-05-26T01:23:43.246Z,5.60
2019-05-26T01:26:09.366Z,5.50
2019-05-26T01:28:35.269Z,6.10
2019-05-26T01:31:01.285Z,6.22
2019-05-26T01:33:27.393Z,5.97
2019-05-26T01:35:53.499Z,6.37
2019-05-26T01:38:24.142Z,6.70
2019-05-26T01:40:48.412Z,6.30
2019-05-26T01:43:14.430Z,5.72
2019-05-26T01:45:40.530Z,6.47
2019-05-26T01:48:06.735Z,5.95
2019-05-26T01:50:32.982Z,6.30
2019-05-26T01:52:58.890Z,6.70
2019-05-26T01:55:24.933Z,5.67
2019-05-26T01:57:50.912Z,6.00
2019-05-26T02:00:17.066Z,5.58
2019-05-26T02:02:43.114Z,6.33
2019-05-26T02:05:09.208Z,5.83
2019-05-26T02:07:35.246Z,5.60
2019-05-26T02:10:01.759Z,6.35
2019-05-26T02:12:27.693Z,6.47
2019-05-26T02:14:53.730Z,6.72
2019-05-26T02:17:19.745Z,7.35
2019-05-26T02:19:45.674Z,7.78
2019-05-26T02:22:11.787Z,5.90
2019-05-26T02:24:37.898Z,6.53
2019-05-26T02:27:03.911Z,6.47
2019-05-26T02:29:29.824Z,6.05
2019-05-26T02:31:55.843Z,6.92
2019-05-26T02:34:22.011Z,7.20
2019-05-26T02:36:47.998Z,6.60
2019-05-26T02:39:14.130Z,7.30
2019-05-26T02:41:40.266Z,6.58
2019-05-26T02:44:06.494Z,5.87
2019-05-26T02:46:32.578Z,7.17
2019-05-26T02:48:58.688Z,6.17
2019-05-26T02:51:24.857Z,6.17
2019-05-26T02:53:50.991Z,7.25
2019-05-26T02:56:17.087Z,7.03
2019-05-26T02:58:43.127Z,6.40
2019-05-26T03:01:09.449Z,6.83
2019-05-26T03:03:35.656Z,6.60
2019-05-26T03:06:02.958Z,6.47
2019-05-26T03:08:29.478Z,6.53
2019-05-26T03:10:57.868Z,6.78
2019-05-26T03:13:26.270Z,6.30
2019-05-26T03:15:54.792Z,7.60
2019-05-26T03:18:20.794Z,8.03
2019-05-26T03:20:46.900Z,7.87
2019-05-26T03:23:15.010Z,8.18
2019-05-26T03:25:41.112Z,7.62
2019-05-26T03:28:07.839Z,7.80
2019-05-26T03:30:34.617Z,7.28
2019-05-26T03:33:00.639Z,7.33
2019-05-26T03:35:26.664Z,8.23
2019-05-26T03:37:52.570Z,8.03
2019-05-26T03:40:18.685Z,7.70
2019-05-26T03:42:44.731Z,6.92
2019-05-26T03:45:14.393Z,6.97
2019-05-26T03:47:40.448Z,8.13
2019-05-26T03:50:06.856Z,7.40
2019-05-26T03:52:32.897Z,6.78
2019-05-26T03:54:58.891Z,7.05
2019-05-26T03:57:24.932Z,5.75
2019-05-26T03:59:50.940Z,6.75
2019-05-26T04:02:16.971Z,6.55
2019-05-26T04:04:42.877Z,7.20
2019-05-26T04:07:09.020Z,7.33
2019-05-26T04:09:34.924Z,6.70
2019-05-26T04:12:00.839Z,7.42
2019-05-26T04:14:26.848Z,6.80
2019-05-26T04:16:56.239Z,6.53
2019-05-26T04:19:20.913Z,7.03
2019-05-26T04:21:47.466Z,6.92
2019-05-26T04:24:13.600Z,7.70
2019-05-26T04:26:40.302Z,8.78
2019-05-26T04:29:06.304Z,8.00
2019-05-26T04:31:32.422Z,8.60
2019-05-26T04:33:58.349Z,9.25
2019-05-26T04:36:24.385Z,9.28
2019-05-26T04:38:50.393Z,11.00
2019-05-26T04:41:16.435Z,10.65
2019-05-26T04:43:42.352Z,10.03
2019-05-26T04:46:08.363Z,10.23
2019-05-26T04:48:34.306Z,9.75
2019-05-26T04:51:00.335Z,10.55
2019-05-26T04:53:26.339Z,11.15
2019-05-26T04:55:52.495Z,10.20
2019-05-26T04:58:18.603Z,9.30
2019-05-26T05:00:44.645Z,10.32
2019-05-26T05:03:10.757Z,10.68
2019-05-26T05:05:36.658Z,10.38
2019-05-26T05:08:02.892Z,10.80
2019-05-26T05:10:41.979Z,10.40
2019-05-26T05:12:56.919Z,10.95
2019-05-26T05:15:23.030Z,11.05
2019-05-26T05:17:49.040Z,10.45
2019-05-26T05:20:15.240Z,11.03
2019-05-26T05:22:41.160Z,11.00
2019-05-26T05:25:13.890Z,10.43
2019-05-26T05:27:35.388Z,10.08
2019-05-26T05:30:03.464Z,9.85
2019-05-26T05:32:32.810Z,9.93
2019-05-26T05:34:57.316Z,9.20
2019-05-26T05:37:25.312Z,9.35
2019-05-26T05:39:51.340Z,11.78
2019-05-26T05:42:17.447Z,10.70
2019-05-26T05:44:43.464Z,10.03
2019-05-26T05:47:09.571Z,10.88
2019-05-26T05:49:35.694Z,11.33
2019-05-26T05:52:01.696Z,10.63
2019-05-26T05:54:27.717Z,10.32
2019-05-26T05:56:55.747Z,10.32
2019-05-26T05:59:21.650Z,9.75
2019-05-26T06:01:47.540Z,9.95
2019-05-26T06:04:13.558Z,10.05
2019-05-26T06:06:39.571Z,10.45
2019-05-26T06:09:05.883Z,10.18
2019-05-26T06:11:31.997Z,9.75
2019-05-26T06:13:57.944Z,9.08
2019-05-26T06:16:24.115Z,9.73
2019-05-26T06:18:50.219Z,10.65
2019-05-26T06:21:16.324Z,10.95
2019-05-26T06:23:42.327Z,10.23
2019-05-26T06:26:08.483Z,9.50
2019-05-26T06:28:34.606Z,10.75
2019-05-26T06:31:00.753Z,9.28
2019-05-26T06:33:26.795Z,9.30
2019-05-26T06:35:52.915Z,9.28
2019-05-26T06:38:18.921Z,8.75
2019-05-26T06:40:44.939Z,9.35
2019-05-26T06:43:11.078Z,7.92
2019-05-26T06:45:37.092Z,7.58
2019-05-26T06:48:03.237Z,7.55
2019-05-26T06:50:29.364Z,8.23
2019-05-26T06:52:55.379Z,7.00
2019-05-26T06:55:21.370Z,7.75
2019-05-26T06:57:47.307Z,6.67
2019-05-26T07:00:13.813Z,6.37
2019-05-26T07:02:39.918Z,6.67
2019-05-26T07:05:06.633Z,6.83
2019-05-26T07:07:32.790Z,6.75
2019-05-26T07:09:58.802Z,6.12
2019-05-26T07:12:24.754Z,6.75
2019-05-26T07:14:50.762Z,6.33
2019-05-26T07:17:20.396Z,6.33
2019-05-26T07:19:44.721Z,5.97
2019-05-26T07:22:10.725Z,5.92
2019-05-26T07:24:36.840Z,6.65
2019-05-26T07:27:02.949Z,7.45
2019-05-26T07:29:28.989Z,5.90
2019-05-26T07:31:55.020Z,6.12
2019-05-26T07:34:20.923Z,5.37
2019-05-26T07:36:46.931Z,6.33
2019-05-26T07:39:13.037Z,5.53
2019-05-26T07:41:39.161Z,6.33
2019-05-26T07:44:05.268Z,5.80
2019-05-26T07:46:31.278Z,6.08
2019-05-26T07:48:57.196Z,5.25
2019-05-26T07:51:23.139Z,4.67
2019-05-26T07:53:49.148Z,5.12
2019-05-26T07:56:15.163Z,4.28
2019-05-26T07:58:41.074Z,5.40
2019-05-26T08:01:07.200Z,5.03
2019-05-26T08:03:33.327Z,4.67
2019-05-26T08:05:59.326Z,4.20
2019-05-26T08:08:25.355Z,4.25
2019-05-26T08:10:51.460Z,4.83
2019-05-26T08:13:17.581Z,4.10
2019-05-26T08:15:43.584Z,4.60
2019-05-26T08:18:09.703Z,5.62
2019-05-26T08:20:35.817Z,4.53
2019-05-26T08:23:01.953Z,4.60
2019-05-26T08:25:28.080Z,4.60
2019-05-26T08:27:54.092Z,4.40
2019-05-26T08:30:20.231Z,4.67
2019-05-26T08:32:46.334Z,4.30
2019-05-26T08:35:12.465Z,4.33
2019-05-26T08:37:38.581Z,3.95
2019-05-26T08:40:17.119Z,4.42
2019-05-26T08:42:44.753Z,4.78
2019-05-26T08:45:10.979Z,3.40
2019-05-26T08:47:37.161Z,3.65
2019-05-26T08:50:05.379Z,3.58
2019-05-26T08:52:31.406Z,3.70
2019-05-26T08:54:57.417Z,3.85
2019-05-26T08:57:23.567Z,3.30
2019-05-26T08:59:49.489Z,4.20
2019-05-26T09:02:15.419Z,3.92
2019-05-26T09:04:41.399Z,4.47
2019-05-26T09:07:07.516Z,3.80
2019-05-26T09:09:33.557Z,3.10
2019-05-26T09:11:59.742Z,3.92
2019-05-26T09:14:25.759Z,3.55
2019-05-26T09:16:51.881Z,3.85
2019-05-26T09:19:18.023Z,3.33
2019-05-26T09:21:44.214Z,3.42
2019-05-26T09:24:10.372Z,3.42
2019-05-26T09:26:36.533Z,3.58
2019-05-26T09:29:02.834Z,4.08
2019-05-26T09:31:28.981Z,3.75
2019-05-26T09:33:54.991Z,3.70
2019-05-26T09:36:21.001Z,3.67
2019-05-26T09:38:47.078Z,4.03
2019-05-26T09:41:13.186Z,3.37
2019-05-26T09:43:39.345Z,3.67
2019-05-26T09:46:05.358Z,3.60
2019-05-26T09:48:31.499Z,3.70
2019-05-26T09:50:57.669Z,3.40
2019-05-26T09:53:23.784Z,3.87
2019-05-26T09:55:49.904Z,3.50
2019-05-26T09:58:16.016Z,3.20
2019-05-26T10:00:43.734Z,3.55
2019-05-26T10:03:09.653Z,3.80
2019-05-26T10:05:35.651Z,3.50
2019-05-26T10:08:01.730Z,3.35
2019-05-26T10:10:27.731Z,3.67
2019-05-26T10:12:53.839Z,3.35
2019-05-26T10:15:20.052Z,3.25
2019-05-26T10:17:46.059Z,3.47
2019-05-26T10:20:12.362Z,3.22
2019-05-26T10:22:38.487Z,3.65
2019-05-26T10:25:05.192Z,3.58
2019-05-26T10:27:31.271Z,3.20
2019-05-26T10:29:57.356Z,3.27
2019-05-26T10:32:23.524Z,4.00
2019-05-26T10:34:49.552Z,3.27
2019-05-26T10:37:15.588Z,3.22
2019-05-26T10:39:44.865Z,4.15
2019-05-26T10:42:09.699Z,3.40
2019-05-26T10:44:35.603Z,3.37
2019-05-26T10:47:01.710Z,3.40
2019-05-26T10:49:27.728Z,3.37
2019-05-26T10:51:53.805Z,3.20
2019-05-26T10:54:19.806Z,3.02
2019-05-26T10:56:45.949Z,3.00
2019-05-26T10:59:11.949Z,3.33
2019-05-26T11:01:38.011Z,3.17
2019-05-26T11:04:04.238Z,3.35
2019-05-26T11:06:30.373Z,2.70
2019-05-26T11:08:56.379Z,3.17
2019-05-26T11:11:22.324Z,3.65
2019-05-26T11:14:01.869Z,3.95
2019-05-26T11:16:16.891Z,3.45
2019-05-26T11:18:42.888Z,3.87
2019-05-26T11:21:12.240Z,3.55
2019-05-26T11:23:37.072Z,3.37
2019-05-26T11:26:03.868Z,3.37
2019-05-26T11:28:29.992Z,3.62
2019-05-26T11:30:55.953Z,3.70
2019-05-26T11:33:21.990Z,3.87
2019-05-26T11:35:47.881Z,3.85
2019-05-26T11:38:13.927Z,3.85
2019-05-26T11:40:40.043Z,3.72
2019-05-26T11:43:16.388Z,3.95
2019-05-26T11:45:34.213Z,3.58
2019-05-26T11:48:00.379Z,3.42
2019-05-26T11:50:26.387Z,3.80
2019-05-26T11:52:52.500Z,3.58
2019-05-26T11:55:18.606Z,3.42
2019-05-26T11:57:44.650Z,4.30
2019-05-26T12:00:14.186Z,3.65
2019-05-26T12:02:40.427Z,4.17
2019-05-26T12:05:06.931Z,3.40
2019-05-26T12:07:32.944Z,3.80
2019-05-26T12:09:58.956Z,4.03
2019-05-26T12:12:24.952Z,4.08
2019-05-26T12:14:50.859Z,4.08
2019-05-26T12:17:16.867Z,3.33
2019-05-26T12:19:42.888Z,3.95
2019-05-26T12:22:09.192Z,4.33
2019-05-26T12:24:35.202Z,4.17
2019-05-26T12:27:01.203Z,3.75
2019-05-26T12:29:27.213Z,4.10
2019-05-26T12:31:53.210Z,3.75
2019-05-26T12:34:19.977Z,3.40
2019-05-26T12:36:46.080Z,4.22
2019-05-26T12:39:12.099Z,4.05
2019-05-26T12:41:38.008Z,3.90
2019-05-26T12:44:04.222Z,3.85
2019-05-26T12:46:30.251Z,3.98
2019-05-26T12:48:56.228Z,3.77
2019-05-26T12:51:22.227Z,5.12
2019-05-26T12:53:48.243Z,3.60
2019-05-26T12:56:15.231Z,3.70
2019-05-26T12:58:41.404Z,4.17
2019-05-26T13:01:07.495Z,3.67
2019-05-26T13:03:33.535Z,3.83
2019-05-26T13:05:59.667Z,3.72
2019-05-26T13:08:25.717Z,3.50
2019-05-26T13:10:51.727Z,3.27
2019-05-26T13:13:17.860Z,3.33
2019-05-26T13:15:43.982Z,3.55
2019-05-26T13:18:10.096Z,4.12
2019-05-26T13:20:36.235Z,3.77
2019-05-26T13:23:02.378Z,3.40
2019-05-26T13:25:28.515Z,3.47
2019-05-26T13:27:54.534Z,3.00
2019-05-26T13:30:22.855Z,3.75
2019-05-26T13:32:49.074Z,3.45
2019-05-26T13:35:15.415Z,3.30
2019-05-26T13:37:41.483Z,2.85
2019-05-26T13:40:08.721Z,3.00
2019-05-26T13:42:35.076Z,2.85
2019-05-26T13:45:01.175Z,2.80
2019-05-26T13:47:27.225Z,3.02
2019-05-26T13:49:53.329Z,3.00
2019-05-26T13:52:19.481Z,3.50
2019-05-26T13:54:45.510Z,3.27
2019-05-26T13:57:11.669Z,4.28
2019-05-26T13:59:37.704Z,2.72
2019-05-26T14:02:03.924Z,2.70
2019-05-26T14:04:30.042Z,3.27
2019-05-26T14:06:56.154Z,2.70
2019-05-26T14:09:22.278Z,2.75
2019-05-26T14:11:48.290Z,2.85
2019-05-26T14:14:14.822Z,2.67
2019-05-26T14:16:43.142Z,2.40
2019-05-26T14:19:09.489Z,2.72
2019-05-26T14:21:35.486Z,2.72
2019-05-26T14:24:01.441Z,2.55
2019-05-26T14:26:27.369Z,2.58
2019-05-26T14:28:53.379Z,2.50
2019-05-26T14:31:19.546Z,2.62
2019-05-26T14:33:45.450Z,2.52
2019-05-26T14:36:11.486Z,3.40
2019-05-26T14:38:43.161Z,2.90
2019-05-26T14:41:05.405Z,2.77
2019-05-26T14:43:31.603Z,2.52
2019-05-26T14:45:57.708Z,2.27
2019-05-26T14:48:23.821Z,2.72
2019-05-26T14:50:49.922Z,2.72
2019-05-26T14:53:16.068Z,2.60
2019-05-26T14:55:42.075Z,2.33
2019-05-26T14:58:15.876Z,2.33
2019-05-26T15:00:36.196Z,2.62
2019-05-26T15:03:02.804Z,2.83
2019-05-26T15:05:28.910Z,2.70
2019-05-26T15:07:55.029Z,2.22
2019-05-26T15:10:22.694Z,2.75
2019-05-26T15:12:49.170Z,2.72
2019-05-26T15:15:16.570Z,2.98
2019-05-26T15:17:42.784Z,2.30
2019-05-26T15:20:09.391Z,3.17
2019-05-26T15:22:35.427Z,2.47
2019-05-26T15:25:03.467Z,2.80
2019-05-26T15:27:29.482Z,2.62
2019-05-26T15:29:55.382Z,2.55
2019-05-26T15:32:21.498Z,2.33
2019-05-26T15:34:47.400Z,2.70
2019-05-26T15:37:13.539Z,3.37
2019-05-26T15:39:39.559Z,2.65
2019-05-26T15:42:08.330Z,2.80
2019-05-26T15:44:33.589Z,2.98
2019-05-26T15:46:59.925Z,3.62
2019-05-26T15:49:26.040Z,2.60
2019-05-26T15:51:52.155Z,2.65
2019-05-26T15:54:18.174Z,5.05
2019-05-26T15:56:44.194Z,5.30
2019-05-26T15:59:10.304Z,6.00
2019-05-26T16:01:36.318Z,5.40
2019-05-26T16:04:02.442Z,5.45
2019-05-26T16:06:28.587Z,5.62
2019-05-26T16:08:54.719Z,6.67
2019-05-26T16:11:20.827Z,7.47
2019-05-26T16:13:46.877Z,7.45
2019-05-26T16:16:12.983Z,7.10
2019-05-26T16:18:39.107Z,6.92
2019-05-26T16:21:05.214Z,7.03
2019-05-26T16:23:31.326Z,6.90
2019-05-26T16:25:57.335Z,6.10
2019-05-26T16:28:23.373Z,5.40
2019-05-26T16:30:49.267Z,6.28
2019-05-26T16:33:15.193Z,5.28
2019-05-26T16:35:41.298Z,5.58
2019-05-26T16:38:07.310Z,5.72
2019-05-26T16:40:33.358Z,5.95
2019-05-26T16:42:59.359Z,6.67
2019-05-26T16:45:25.376Z,6.80
2019-05-26T16:47:51.287Z,7.25
2019-05-26T16:50:17.398Z,7.05
2019-05-26T16:52:43.515Z,6.97
2019-05-26T16:55:10.122Z,6.72
2019-05-26T16:57:36.237Z,7.55
2019-05-26T17:00:03.345Z,7.58
2019-05-26T17:02:29.360Z,7.60
2019-05-26T17:04:55.491Z,5.83
2019-05-26T17:07:21.401Z,7.05
2019-05-26T17:09:47.542Z,6.15
2019-05-26T17:12:13.588Z,6.03
2019-05-26T17:14:39.596Z,7.12
2019-05-26T17:17:14.875Z,6.35
2019-05-26T17:19:33.648Z,5.40
2019-05-26T17:21:59.676Z,5.60
2019-05-26T17:24:25.717Z,6.30
2019-05-26T17:26:51.827Z,5.53
2019-05-26T17:29:17.866Z,5.97
2019-05-26T17:31:43.875Z,5.87
2019-05-26T17:34:10.022Z,6.37
2019-05-26T17:36:36.341Z,5.67
2019-05-26T17:39:05.593Z,6.28
2019-05-26T17:43:57.464Z,8.10
2019-05-26T17:46:23.469Z,6.83
2019-05-26T17:48:49.578Z,7.10
2019-05-26T17:51:15.693Z,7.10
2019-05-26T17:53:41.728Z,6.12
2019-05-26T17:56:07.893Z,5.53
2019-05-26T17:58:33.898Z,6.50
2019-05-26T18:01:00.054Z,7.17
2019-05-26T18:03:26.069Z,7.35
2019-05-26T18:05:52.212Z,6.25
2019-05-26T18:08:18.323Z,6.65
2019-05-26T18:10:44.471Z,6.40
2019-05-26T18:13:10.592Z,5.60
2019-05-26T18:15:36.747Z,5.83
2019-05-26T18:18:02.951Z,6.10
2019-05-26T18:20:29.162Z,6.35
2019-05-26T18:22:55.205Z,5.97
2019-05-26T18:25:21.302Z,6.60
2019-05-26T18:27:47.309Z,6.33
2019-05-26T18:30:13.817Z,6.05
2019-05-26T18:32:39.827Z,7.47
2019-05-26T18:35:06.963Z,6.67
2019-05-26T18:37:33.076Z,6.17
2019-05-26T18:39:59.193Z,6.87
2019-05-26T18:42:25.293Z,6.42
2019-05-26T18:44:51.324Z,6.08
2019-05-26T18:47:17.430Z,5.92
2019-05-26T18:49:43.576Z,6.30
2019-05-26T18:52:09.791Z,6.25
2019-05-26T18:54:35.879Z,6.40
2019-05-26T18:57:02.007Z,6.40
2019-05-26T18:59:28.035Z,5.53
2019-05-26T19:01:54.178Z,5.37
2019-05-26T19:04:20.183Z,5.53
2019-05-26T19:06:46.089Z,5.87
2019-05-26T19:09:12.196Z,5.70
2019-05-26T19:11:38.301Z,5.45
2019-05-26T19:14:05.110Z,5.35
2019-05-26T19:16:31.216Z,5.65
2019-05-26T19:18:57.411Z,5.53
2019-05-26T19:21:23.514Z,5.17
2019-05-26T19:23:49.555Z,5.80
2019-05-26T19:26:15.704Z,6.05
2019-05-26T19:28:41.749Z,5.92
2019-05-26T19:31:07.856Z,4.97
2019-05-26T19:33:33.894Z,5.85
2019-05-26T19:35:59.794Z,5.80
2019-05-26T19:38:25.944Z,5.33
2019-05-26T19:40:51.974Z,5.40
2019-05-26T19:43:18.110Z,5.92
2019-05-26T19:45:44.230Z,5.70
2019-05-26T19:48:10.235Z,5.10
2019-05-26T19:50:36.283Z,5.45
2019-05-26T19:53:02.608Z,5.65
2019-05-26T19:55:28.788Z,5.00
2019-05-26T19:57:54.798Z,6.83
2019-05-26T20:00:21.282Z,4.83
2019-05-26T20:02:47.291Z,4.65
2019-05-26T20:05:14.183Z,5.20
2019-05-26T20:07:40.295Z,5.37
2019-05-26T20:10:07.335Z,5.85
2019-05-26T20:12:33.437Z,5.40
2019-05-26T20:14:59.545Z,5.50
2019-05-26T20:17:25.558Z,5.92
2019-05-26T20:19:51.599Z,5.55
2019-05-26T20:22:17.697Z,5.42
2019-05-26T20:24:43.645Z,4.58
2019-05-26T20:27:09.760Z,5.10
2019-05-26T20:29:35.795Z,4.92
2019-05-26T20:32:01.938Z,4.97
2019-05-26T20:34:28.049Z,4.62
2019-05-26T20:36:54.164Z,5.15
2019-05-26T20:39:20.170Z,4.92
2019-05-26T20:41:46.077Z,5.15
2019-05-26T20:44:12.190Z,4.62
2019-05-26T20:46:38.204Z,4.90
2019-05-26T20:49:04.312Z,3.98
2019-05-26T20:51:30.418Z,4.30
2019-05-26T20:53:56.483Z,5.00
2019-05-26T20:56:22.487Z,5.80
2019-05-26T20:58:48.496Z,5.45
2019-05-26T21:01:14.611Z,5.62
2019-05-26T21:03:40.736Z,5.90
2019-05-26T21:06:06.673Z,5.25
2019-05-26T21:08:32.621Z,4.58
2019-05-26T21:10:58.519Z,4.97
2019-05-26T21:13:24.465Z,4.90
2019-05-26T21:15:50.588Z,5.15
2019-05-26T21:18:16.639Z,4.95
2019-05-26T21:20:43.153Z,5.42
2019-05-26T21:23:09.059Z,5.15
2019-05-26T21:25:35.230Z,5.35
2019-05-26T21:28:01.085Z,5.28
2019-05-26T21:30:27.190Z,5.28
2019-05-26T21:32:53.300Z,5.40
2019-05-26T21:35:19.409Z,5.58
2019-05-26T21:37:45.413Z,4.72
2019-05-26T21:40:11.759Z,5.10
2019-05-26T21:42:37.762Z,5.20
2019-05-26T21:45:05.369Z,7.50
2019-05-26T21:47:31.515Z,5.97
2019-05-26T21:49:57.518Z,6.15
2019-05-26T21:52:23.635Z,5.40
2019-05-26T21:54:49.584Z,5.60
2019-05-26T21:57:15.603Z,5.83
2019-05-26T21:59:41.539Z,5.30
2019-05-26T22:02:07.709Z,6.05
2019-05-26T22:04:33.815Z,5.75
2019-05-26T22:06:59.965Z,5.87
2019-05-26T22:09:26.095Z,5.60
2019-05-26T22:11:52.115Z,5.37
2019-05-26T22:14:18.224Z,5.50
2019-05-26T22:16:44.229Z,6.83
2019-05-26T22:19:10.382Z,5.75
2019-05-26T22:21:36.291Z,5.50
2019-05-26T22:24:02.532Z,6.08
2019-05-26T22:26:28.594Z,4.97
2019-05-26T22:28:54.702Z,5.37
2019-05-26T22:31:21.455Z,5.65
2019-05-26T22:33:47.366Z,6.12
2019-05-26T22:36:13.394Z,5.45
2019-05-26T22:38:39.411Z,5.60
2019-05-26T22:41:05.551Z,6.15
2019-05-26T22:43:31.695Z,6.10
2019-05-26T22:45:57.965Z,6.40
2019-05-26T22:48:24.005Z,6.58
2019-05-26T22:50:50.049Z,6.08
2019-05-26T22:53:16.162Z,7.05
2019-05-26T22:55:42.176Z,6.20
2019-05-26T22:58:08.090Z,7.08
2019-05-26T23:00:34.209Z,6.20
2019-05-26T23:03:00.351Z,6.92
2019-05-26T23:05:26.468Z,6.40
2019-05-26T23:07:52.576Z,6.78
2019-05-26T23:10:18.677Z,5.83
2019-05-26T23:12:44.795Z,6.75
2019-05-26T23:15:12.535Z,6.45
2019-05-26T23:17:39.308Z,6.50
2019-05-26T23:20:07.581Z,6.37
2019-05-26T23:22:33.586Z,6.25
2019-05-26T23:24:59.703Z,6.83
2019-05-26T23:27:25.824Z,5.80
2019-05-26T23:29:51.721Z,5.80
2019-05-26T23:32:17.828Z,6.50
2019-05-26T23:34:43.861Z,6.05
2019-05-26T23:37:09.847Z,6.55
2019-05-26T23:39:35.961Z,5.28
2019-05-26T23:42:02.097Z,5.85
2019-05-26T23:44:28.101Z,6.80
2019-05-26T23:46:54.138Z,6.97
2019-05-26T23:49:20.054Z,6.53
2019-05-26T23:51:46.107Z,6.08
2019-05-26T23:54:12.229Z,6.45
2019-05-26T23:56:38.323Z,7.17
2019-05-26T23:59:04.434Z,6.33
